Latest Coastal Weather Observations for Minlaton Airport

IDS60701

Issued at 6:25 pm CST Tuesday 29 July 2014 (issued every 10 minutes, with the page automatically refreshed every 10 minutes)

About coastal observations | Map of coastal stations | Coastal observations for SA | Marine services | Other Formats
Station Details ID: 022031 Name: MINLATON AERO Lat: -34.75 Lon: 137.53 Height: 32.0 m
Data from the previous 72 hours. | See also: Recent months at Minlaton Airport
Date/Time
CST
Temp

°C
Wind Pressure Rain
since 9am
mm
Weather Cloud Vis
km
Sea
Height
m
Swell
Dir
 
Speed
knots
Gust
knots
hPa Trend Height
m
Period
s
Dir
29/06:00pm 14.2 WNW 15 21 1017.2 - 0.0 - - - - - - -
29/05:30pm 14.6 WNW 16 22 1016.9 - 0.0 - - - - - - -
29/05:00pm 14.5 NW 15 20 1016.3 - 0.0 - - - - - - -
29/04:30pm 14.5 NW 13 17 1016.1 - 0.0 - - - - - - -
29/04:00pm 14.5 NW 12 16 1016.2 - 0.0 - - - - - - -
29/03:30pm 14.6 NW 15 21 1016.2 - 0.0 - - - - - - -
29/03:00pm 14.7 NW 14 19 1016.0 - 0.0 - - - - - - -
29/02:30pm 15.0 NW 17 23 1015.9 - 0.0 - - - - - - -
29/02:00pm 15.0 NW 17 23 1015.7 - 0.0 - - - - - - -
29/01:30pm 14.9 NW 18 24 1016.0 - 0.0 - - - - - - -
29/01:00pm 15.6 NW 19 23 1015.7 - 0.0 - - - - - - -
29/12:30pm 15.1 NW 18 23 1016.1 - 0.0 - - - - - - -
29/12:00pm 15.6 NW 17 23 1016.4 - 0.0 - - - - - - -
29/11:30am 14.6 NW 18 24 1016.7 - 0.0 - - - - - - -
29/11:00am 14.7 NW 21 27 1016.6 - 0.0 - - - - - - -
29/10:30am 14.9 WNW 19 25 1016.6 - 0.0 - - - - - - -
29/10:00am 14.5 NW 22 29 1016.4 - 0.0 - - - - - - -
29/09:30am 13.7 NW 21 26 1016.2 - 0.0 - - - - - - -
29/09:00am 13.1 NW 21 28 1016.5 - 0.0 - - - - - - -
29/08:30am 13.1 NW 20 25 1016.2 - 0.0 - - - - - - -
29/08:00am 12.9 NW 19 23 1015.8 - 0.0 - - - - - - -
29/07:30am 12.6 NW 18 25 1015.8 - 0.0 - - - - - - -
29/07:00am 12.4 NNW 19 24 1015.8 - 0.0 - - - - - - -
29/06:30am 12.4 NNW 17 22 1015.4 - 0.0 - - - - - - -
29/06:00am 11.9 NNW 15 19 1015.1 - 0.0 - - - - - - -
29/05:30am 12.1 NNW 16 21 1015.0 - 0.0 - - - - - - -
29/05:00am 12.6 NW 16 23 1015.3 - 0.0 - - - - - - -
29/04:30am 12.5 NW 17 22 1015.1 - 0.0 - - - - - - -
29/04:00am 12.5 NW 16 21 1014.9 - 0.0 - - - - - - -
29/03:30am 12.4 NW 16 20 1014.9 - 0.0 - - - - - - -
29/03:00am 12.3 NW 15 19 1015.3 - 0.0 - - - - - - -
29/02:30am 12.1 NNW 15 19 1015.0 - 0.0 - - - - - - -
29/02:00am 12.2 NW 15 19 1015.2 - 0.0 - - - - - - -
29/01:30am 12.4 NW 16 20 1015.3 - 0.0 - - - - - - -
29/01:00am 12.5 NW 17 22 1015.7 - 0.0 - - - - - - -
29/12:30am 12.2 NW 15 19 1015.8 - 0.0 - - - - - - -
29/12:00am 12.3 NW 15 19 1016.1 - 0.0 - - - - - - -
 
Date/Time
CST
Temp

°C
Wind Pressure Rain
since 9am
mm
Weather Cloud Vis
km
Sea
Height
m
Swell
Dir
 
Speed
knots
Gust
knots
hPa Trend Height
m
Period
s
Dir
28/11:30pm 12.3 NW 16 20 1016.2 - 0.0 - - - - - - -
28/11:00pm 11.9 NNW 13 17 1016.2 - 0.0 - - - - - - -
28/10:30pm 12.0 NNW 13 17 1016.5 - 0.0 - - - - - - -
28/10:00pm 12.2 NW 14 17 1016.7 - 0.0 - - - - - - -
28/09:30pm 12.0 NNW 13 15 1016.7 - 0.0 - - - - - - -
28/09:00pm 11.8 NNW 13 15 1016.6 - 0.0 - - - - - - -
28/08:30pm 11.2 NNW 11 13 1016.6 - 0.0 - - - - - - -
28/08:00pm 11.6 NNW 12 15 1016.4 - 0.0 - - - - - - -
28/07:30pm 11.7 NNW 12 14 1016.3 - 0.0 - - - - - - -
28/07:00pm 11.6 NNW 11 13 1016.0 - 0.0 - - - - - - -
28/06:30pm 11.6 NNW 11 13 1015.7 - 0.0 - - - - - - -
28/06:00pm 11.9 NNW 11 13 1015.8 - 0.0 - - - - - - -
28/05:30pm 12.3 NNW 11 13 1015.7 - 0.0 - - - - - - -
28/05:00pm 13.5 NNW 12 15 1015.8 - 0.0 - - - - - - -
28/04:30pm 14.2 NNW 14 18 1015.7 - 0.0 - - - - - - -
28/04:00pm 14.7 NNW 15 19 1015.5 - 0.0 - - - - - - -
28/03:30pm 14.9 NNW 17 21 1015.5 - 0.0 - - - - - - -
28/03:00pm 14.9 NNW 16 21 1015.6 - 0.0 - - - - - - -
28/02:30pm 14.7 NNW 17 22 1015.8 - 0.0 - - - - - - -
28/02:00pm 15.1 NNW 16 19 1015.9 - 0.0 - - - - - - -
28/01:30pm 15.1 NW 15 21 1016.5 - 0.0 - - - - - - -
28/01:00pm 14.9 NW 15 18 1017.0 - 0.0 - - - - - - -
28/12:30pm 14.9 NW 13 16 1017.4 - 0.0 - - - - - - -
28/12:00pm 14.5 NW 14 18 1017.8 - 0.0 - - - - - - -
28/11:30am 13.7 NW 12 16 1017.9 - 0.0 - - - - - - -
28/11:00am 14.3 NNW 12 16 1018.0 - 0.0 - - - - - - -
28/10:30am 13.6 NW 11 14 1018.2 - 0.0 - - - - - - -
28/10:00am 13.1 NW 10 13 1018.3 - 0.0 - - - - - - -
28/09:30am 13.2 NW 9 12 1018.5 - 0.0 - - - - - - -
28/09:00am 12.4 N 9 11 1018.3 - 0.2 - - - - - - -
28/08:30am 10.9 N 7 8 1018.2 - 0.2 - - - - - - -
28/08:00am 9.9 N 7 8 1018.3 - 0.2 - - - - - - -
28/07:30am 9.7 N 8 9 1017.8 - 0.2 - - - - - - -
28/07:00am 9.5 N 9 10 1017.7 - 0.2 - - - - - - -
28/06:30am 9.4 N 9 11 1017.4 - 0.2 - - - - - - -
28/06:00am 8.8 N 7 9 1017.2 - 0.2 - - - - - - -
28/05:30am 8.7 N 8 9 1017.2 - 0.2 - - - - - - -
28/05:00am 8.4 N 8 9 1017.2 - 0.2 - - - - - - -
28/04:30am 8.0 N 7 9 1017.3 - 0.2 - - - - - - -
28/04:00am 7.9 N 7 7 1017.4 - 0.2 - - - - - - -
28/03:30am 8.3 NNW 8 9 1017.5 - 0.2 - - - - - - -
28/03:00am 8.5 N 9 10 1017.3 - 0.2 - - - - - - -
28/02:30am 7.3 N 9 9 1017.4 - 0.2 - - - - - - -
28/02:00am 7.0 N 9 9 1017.6 - 0.2 - - - - - - -
28/01:30am 7.2 N 9 10 1017.5 - 0.2 - - - - - - -
28/01:00am 7.8 N 10 12 1017.5 - 0.2 - - - - - - -
28/12:30am 7.8 N 10 11 1017.7 - 0.2 - - - - - - -
28/12:00am 7.6 N 9 9 1017.9 - 0.2 - - - - - - -
 
Date/Time
CST
Temp

°C
Wind Pressure Rain
since 9am
mm
Weather Cloud Vis
km
Sea
Height
m
Swell
Dir
 
Speed
knots
Gust
knots
hPa Trend Height
m
Period
s
Dir
27/11:30pm 7.7 N 8 9 1018.2 - 0.2 - - - - - - -
27/11:00pm 8.1 N 9 10 1018.3 - 0.2 - - - - - - -
27/10:30pm 9.5 N 10 12 1018.4 - 0.2 - - - - - - -
27/10:00pm 9.4 N 10 11 1018.5 - 0.2 - - - - - - -
27/09:30pm 9.6 N 10 11 1018.6 - 0.2 - - - - - - -
27/09:00pm 9.7 N 9 9 1018.8 - 0.2 - - - - - - -
27/08:30pm 10.8 N 10 12 1018.6 - 0.2 - - - - - - -
27/08:00pm 11.1 N 12 14 1018.5 - 0.2 - - - - - - -
27/07:30pm 11.1 N 12 14 1018.5 - 0.2 - - - - - - -
27/07:00pm 10.7 N 11 13 1018.6 - 0.2 - - - - - - -
27/06:30pm 11.2 N 11 13 1018.5 - 0.2 - - - - - - -
27/06:00pm 11.6 N 9 11 1018.6 - 0.2 - - - - - - -
27/05:30pm 12.8 N 10 12 1018.4 - 0.2 - - - - - - -
27/05:00pm 13.8 N 10 13 1018.3 - 0.2 - - - - - - -
27/04:30pm 14.6 N 13 16 1018.3 - 0.2 - - - - - - -
27/04:00pm 15.1 N 15 21 1018.2 - 0.2 - - - - - - -
27/03:30pm 15.8 N 13 15 1018.5 - 0.2 - - - - - - -
27/03:00pm 16.0 N 11 17 1018.5 - 0.2 Recent precip. - - - - - -
27/02:30pm 15.2 N 13 17 1018.9 - 0.0 - - - - - - -
27/02:00pm 14.7 N 17 21 1019.0 - 0.0 - - - - - - -
27/01:30pm 14.4 N 17 22 1019.4 - 0.0 - - - - - - -
27/01:00pm 14.5 N 17 25 1019.8 - 0.0 - - - - - - -
27/12:30pm 14.0 N 19 26 1020.2 - 0.0 - - - - - - -
27/12:00pm 13.7 N 19 25 1020.7 - 0.0 - - - - - - -
27/11:30am 13.5 N 19 25 1021.4 - 0.0 - - - - - - -
27/11:00am 13.4 N 17 22 1021.8 - 0.0 - - - - - - -
27/10:30am 12.7 N 15 20 1022.5 - 0.0 - - - - - - -
27/10:00am 12.1 N 13 18 1022.5 - 0.0 - - - - - - -
27/09:30am 11.4 N 15 18 1022.6 - 0.0 - - - - - - -
27/09:00am 10.4 N 15 18 1022.6 - 0.0 - - - - - - -
27/08:30am 9.4 N 13 16 1023.0 - 0.0 - - - - - - -
27/08:00am 8.3 N 11 14 1023.1 - 0.0 - - - - - - -
27/07:30am 8.2 N 12 14 1022.8 - 0.0 - - - - - - -
27/07:00am 8.4 N 13 16 1022.6 - 0.0 - - - - - - -
27/06:30am 8.4 N 12 15 1022.6 - 0.0 - - - - - - -
27/06:00am 8.1 N 11 13 1022.6 - 0.0 - - - - - - -
27/05:30am 8.4 N 11 14 1022.5 - 0.0 - - - - - - -
27/05:00am 8.6 N 13 15 1022.5 - 0.0 - - - - - - -
27/04:30am 8.8 N 14 17 1022.7 - 0.0 - - - - - - -
27/04:00am 8.3 N 13 15 1023.0 - 0.0 - - - - - - -
27/03:30am 7.4 N 11 13 1023.5 - 0.0 - - - - - - -
27/03:00am 6.8 N 10 11 1024.0 - 0.0 - - - - - - -
27/02:30am 6.3 N 8 9 1024.2 - 0.0 - - - - - - -
27/02:00am 7.0 N 7 8 1023.9 - 0.0 - - - - - - -
27/01:30am 8.7 N 11 13 1024.0 - 0.0 - - - - - - -
27/01:00am 8.8 NNE 10 12 1023.8 - 0.0 - - - - - - -
27/12:30am 8.6 NNE 11 13 1024.2 - 0.0 - - - - - - -
27/12:00am 8.9 NE 13 14 1024.4 - 0.0 - - - - - - -
 
Date/Time
CST
Temp

°C
Wind Pressure Rain
since 9am
mm
Weather Cloud Vis
km
Sea
Height
m
Swell
Dir
 
Speed
knots
Gust
knots
hPa Trend Height
m
Period
s
Dir
26/11:30pm 9.0 NE 13 15 1024.7 - 0.0 - - - - - - -
26/11:00pm 9.0 NE 12 14 1024.8 - 0.0 - - - - - - -
26/10:30pm 9.0 NE 11 13 1025.1 - 0.0 - - - - - - -
26/10:00pm 8.8 NE 11 13 1025.2 - 0.0 - - - - - - -
26/09:30pm 8.4 NE 11 13 1025.4 - 0.0 - - - - - - -
26/09:00pm 8.6 NE 11 12 1025.6 - 0.0 - - - - - - -
26/08:30pm 8.3 NE 10 11 1025.7 - 0.0 - - - - - - -
26/08:00pm 8.5 NE 10 11 1025.7 - 0.0 - - - - - - -
26/07:30pm 8.4 NE 11 11 1025.8 - 0.0 - - - - - - -
26/07:00pm 8.3 NE 9 9 1025.7 - 0.0 - - - - - - -
26/06:30pm 8.9 NNE 6 6 1025.8 - 0.0 - - - - - - -

Other Formats:

Comma delimited format used in spreadsheet applications
http://www.bom.gov.au/fwo/IDS60701/IDS60701.95659.axf

JavaScript Object Notation format (JSON) in row-major order
http://www.bom.gov.au/fwo/IDS60701/IDS60701.95659.json